createdAt,value
2024-05-09T00:00:10.435Z,51.20
2024-05-09T00:00:36.416Z,51.20
2024-05-09T00:00:52.509Z,51.20
2024-05-09T00:01:05.669Z,51.20
2024-05-09T00:01:21.435Z,51.20
2024-05-09T00:01:34.348Z,51.30
2024-05-09T00:01:47.283Z,51.30
2024-05-09T00:02:00.123Z,51.20
2024-05-09T00:02:15.811Z,51.30
2024-05-09T00:02:28.725Z,51.30
2024-05-09T00:02:42.132Z,51.30
2024-05-09T00:02:55.039Z,51.30
2024-05-09T00:03:09.256Z,51.40
2024-05-09T00:03:23.381Z,51.40
2024-05-09T00:03:36.265Z,51.40
2024-05-09T00:03:49.295Z,51.40
2024-05-09T00:04:04.979Z,51.40
2024-05-09T00:04:17.847Z,51.40
2024-05-09T00:04:30.701Z,51.40
2024-05-09T00:04:43.578Z,51.40
2024-05-09T00:04:56.482Z,51.40
2024-05-09T00:05:11.731Z,51.40
2024-05-09T00:05:24.721Z,51.40
2024-05-09T00:05:37.919Z,51.40
2024-05-09T00:05:50.994Z,51.40
2024-05-09T00:06:06.659Z,51.40
2024-05-09T00:06:19.627Z,51.40
2024-05-09T00:06:32.431Z,51.40
2024-05-09T00:06:45.240Z,51.40
2024-05-09T00:06:58.008Z,51.40
2024-05-09T00:07:10.913Z,51.40
2024-05-09T00:07:23.767Z,51.40
2024-05-09T00:07:36.554Z,51.40
2024-05-09T00:07:49.518Z,51.40
2024-05-09T00:08:05.114Z,51.40
2024-05-09T00:08:18.002Z,51.40
2024-05-09T00:08:31.021Z,51.40
2024-05-09T00:08:43.923Z,51.50
2024-05-09T00:08:56.797Z,51.40
2024-05-09T00:09:09.578Z,51.40
2024-05-09T00:09:22.391Z,51.40
2024-05-09T00:09:35.245Z,51.40
2024-05-09T00:09:48.233Z,51.40
2024-05-09T00:10:01.175Z,51.40
2024-05-09T00:10:25.225Z,51.40
2024-05-09T00:10:42.258Z,51.50
2024-05-09T00:10:55.287Z,51.40
2024-05-09T00:11:08.298Z,51.40
2024-05-09T00:11:23.109Z,51.40
2024-05-09T00:11:36.178Z,51.40
2024-05-09T00:11:49.147Z,51.40
2024-05-09T00:12:04.872Z,51.40
2024-05-09T00:12:17.943Z,51.50
2024-05-09T00:12:30.857Z,51.50
2024-05-09T00:12:43.645Z,51.50
2024-05-09T00:12:56.508Z,51.50
2024-05-09T00:13:10.857Z,51.50
2024-05-09T00:13:24.185Z,51.40
2024-05-09T00:13:36.976Z,51.50
2024-05-09T00:13:52.411Z,51.50
2024-05-09T00:14:05.280Z,51.50
2024-05-09T00:14:18.401Z,51.50
2024-05-09T00:14:31.360Z,51.50
2024-05-09T00:14:44.205Z,51.50
2024-05-09T00:14:57.070Z,51.50
2024-05-09T00:15:10.113Z,51.50
2024-05-09T00:15:22.924Z,51.40
2024-05-09T00:15:36.676Z,51.40
2024-05-09T00:15:52.486Z,51.50
2024-05-09T00:16:06.663Z,51.50
2024-05-09T00:16:22.182Z,51.50
2024-05-09T00:16:35.062Z,51.50
2024-05-09T00:16:49.717Z,51.50
2024-05-09T00:17:02.586Z,51.50
2024-05-09T00:17:15.529Z,51.50
2024-05-09T00:17:28.847Z,51.50
2024-05-09T00:17:44.837Z,51.50
2024-05-09T00:17:58.141Z,51.50
2024-05-09T00:18:11.246Z,51.50
2024-05-09T00:18:24.502Z,51.40
2024-05-09T00:18:37.545Z,51.50
2024-05-09T00:18:50.515Z,51.40
2024-05-09T00:19:03.524Z,51.40
2024-05-09T00:19:19.139Z,51.40
2024-05-09T00:19:32.272Z,51.40
2024-05-09T00:19:45.826Z,51.50
2024-05-09T00:19:58.675Z,51.40
2024-05-09T00:20:17.869Z,51.50
2024-05-09T00:20:40.137Z,51.50
2024-05-09T00:20:54.178Z,51.50
2024-05-09T00:21:10.502Z,51.50
2024-05-09T00:21:23.407Z,51.50
2024-05-09T00:21:36.237Z,51.40
2024-05-09T00:21:49.113Z,51.40
2024-05-09T00:22:01.949Z,51.40
2024-05-09T00:22:14.785Z,51.40
2024-05-09T00:22:27.623Z,51.40
2024-05-09T00:22:40.393Z,51.40
2024-05-09T00:22:53.216Z,51.40
2024-05-09T00:23:07.674Z,51.40
2024-05-09T00:23:23.563Z,51.40
2024-05-09T00:23:36.612Z,51.50
2024-05-09T00:23:49.482Z,51.50
2024-05-09T00:24:02.285Z,51.50
2024-05-09T00:24:15.256Z,51.50
2024-05-09T00:24:28.029Z,51.50
2024-05-09T00:24:40.876Z,51.50
2024-05-09T00:24:53.679Z,51.50
2024-05-09T00:25:09.605Z,51.50
2024-05-09T00:25:22.428Z,51.50
2024-05-09T00:25:35.674Z,51.50
2024-05-09T00:25:48.609Z,51.50
2024-05-09T00:26:01.733Z,51.50
2024-05-09T00:26:17.636Z,51.50
2024-05-09T00:26:33.213Z,51.50
2024-05-09T00:26:46.084Z,51.50
2024-05-09T00:26:59.321Z,51.50
2024-05-09T00:27:13.458Z,51.50
2024-05-09T00:27:26.401Z,51.50
2024-05-09T00:27:39.346Z,51.50
2024-05-09T00:27:52.154Z,51.50
2024-05-09T00:28:05.498Z,51.50
2024-05-09T00:28:18.411Z,51.50
2024-05-09T00:28:33.899Z,51.50
2024-05-09T00:28:46.766Z,51.50
2024-05-09T00:28:59.689Z,51.50
2024-05-09T00:29:12.534Z,51.50
2024-05-09T00:29:25.487Z,51.50
2024-05-09T00:29:38.330Z,51.50
2024-05-09T00:29:51.165Z,51.50
2024-05-09T00:30:04.389Z,51.50
2024-05-09T00:30:24.381Z,51.50
2024-05-09T00:30:47.083Z,51.50
2024-05-09T00:30:59.888Z,51.50
2024-05-09T00:31:12.746Z,51.50
2024-05-09T00:31:28.420Z,51.50
2024-05-09T00:31:41.273Z,51.50
2024-05-09T00:31:54.170Z,51.60
2024-05-09T00:32:08.150Z,51.60
2024-05-09T00:32:21.309Z,51.60
2024-05-09T00:32:37.084Z,51.50
2024-05-09T00:32:50.055Z,51.50
2024-05-09T00:33:03.188Z,51.50
2024-05-09T00:33:16.766Z,51.50
2024-05-09T00:33:30.108Z,51.50
2024-05-09T00:33:43.091Z,51.50
2024-05-09T00:33:56.228Z,51.50
2024-05-09T00:34:09.304Z,51.50
2024-05-09T00:34:22.349Z,51.50
2024-05-09T00:34:37.879Z,51.50
2024-05-09T00:34:50.729Z,51.50
2024-05-09T00:35:03.688Z,51.50
2024-05-09T00:35:16.595Z,51.50
2024-05-09T00:35:29.708Z,51.50
2024-05-09T00:35:42.878Z,51.50
2024-05-09T00:35:55.778Z,51.50
2024-05-09T00:36:08.807Z,51.50
2024-05-09T00:36:21.707Z,51.50
2024-05-09T00:36:37.195Z,51.60
2024-05-09T00:36:50.026Z,51.60
2024-05-09T00:37:02.814Z,51.60
2024-05-09T00:37:16.478Z,51.70
2024-05-09T00:37:29.288Z,51.70
2024-05-09T00:37:42.399Z,51.70
2024-05-09T00:37:55.345Z,51.60
2024-05-09T00:38:08.424Z,51.60
2024-05-09T00:38:21.458Z,51.60
2024-05-09T00:38:38.090Z,51.60
2024-05-09T00:38:50.938Z,51.60
2024-05-09T00:39:03.788Z,51.60
2024-05-09T00:39:16.640Z,51.60
2024-05-09T00:39:29.512Z,51.60
2024-05-09T00:39:42.323Z,51.60
2024-05-09T00:39:55.206Z,51.70
2024-05-09T00:40:18.220Z,51.60
2024-05-09T00:40:41.845Z,51.60
2024-05-09T00:40:56.277Z,51.60
2024-05-09T00:41:09.149Z,51.60
2024-05-09T00:41:22.012Z,51.60
2024-05-09T00:41:34.927Z,51.70
2024-05-09T00:41:47.900Z,51.70
2024-05-09T00:42:00.759Z,51.60
2024-05-09T00:42:13.645Z,51.70
2024-05-09T00:42:29.155Z,51.70
2024-05-09T00:42:42.078Z,51.70
2024-05-09T00:42:55.012Z,51.80
2024-05-09T00:43:07.962Z,51.70
2024-05-09T00:43:20.802Z,51.80
2024-05-09T00:43:33.680Z,51.70
2024-05-09T00:43:46.577Z,51.70
2024-05-09T00:44:00.787Z,51.70
2024-05-09T00:44:16.487Z,51.70
2024-05-09T00:44:29.395Z,51.70
2024-05-09T00:44:42.347Z,51.70
2024-05-09T00:44:55.121Z,51.70
2024-05-09T00:45:08.406Z,51.60
2024-05-09T00:45:21.236Z,51.60
2024-05-09T00:45:34.956Z,51.70
2024-05-09T00:45:48.793Z,51.70
2024-05-09T00:46:02.242Z,51.70
2024-05-09T00:46:15.283Z,51.70
2024-05-09T00:46:33.498Z,51.60
2024-05-09T00:46:46.457Z,51.70
2024-05-09T00:46:59.945Z,51.70
2024-05-09T00:47:13.383Z,51.70
2024-05-09T00:47:26.614Z,51.80
2024-05-09T00:47:40.211Z,51.80
2024-05-09T00:47:53.295Z,51.80
2024-05-09T00:48:09.528Z,51.80
2024-05-09T00:48:26.506Z,51.80
2024-05-09T00:48:40.217Z,51.80
2024-05-09T00:48:53.375Z,51.80
2024-05-09T00:49:06.879Z,51.90
2024-05-09T00:49:20.027Z,51.90
2024-05-09T00:49:33.650Z,51.90
2024-05-09T00:49:46.713Z,51.90
2024-05-09T00:50:00.151Z,51.80
2024-05-09T00:50:22.669Z,51.70
2024-05-09T00:50:42.104Z,51.70
2024-05-09T00:50:57.813Z,51.70
2024-05-09T00:51:10.936Z,51.70
2024-05-09T00:51:24.051Z,51.70
2024-05-09T00:51:37.223Z,51.70
2024-05-09T00:51:50.973Z,51.70
2024-05-09T00:52:06.951Z,51.70
2024-05-09T00:52:19.960Z,51.70
2024-05-09T00:52:33.188Z,51.70
2024-05-09T00:52:46.808Z,51.70
2024-05-09T00:52:59.736Z,51.70
2024-05-09T00:53:15.371Z,51.70
2024-05-09T00:53:28.949Z,51.70
2024-05-09T00:53:44.946Z,51.70
2024-05-09T00:53:58.207Z,51.70
2024-05-09T00:54:11.148Z,51.80
2024-05-09T00:54:24.331Z,51.80
2024-05-09T00:54:37.355Z,51.80
2024-05-09T00:54:50.250Z,51.80
2024-05-09T00:55:03.276Z,51.80
2024-05-09T00:55:17.753Z,51.80
2024-05-09T00:55:33.533Z,51.70
2024-05-09T00:55:47.762Z,51.80
2024-05-09T00:56:01.704Z,51.70
2024-05-09T00:56:15.368Z,51.70
2024-05-09T00:56:28.393Z,51.70
2024-05-09T00:56:42.145Z,51.70
2024-05-09T00:56:55.057Z,51.70
2024-05-09T00:57:10.657Z,51.80
2024-05-09T00:57:24.579Z,51.80
2024-05-09T00:57:37.987Z,51.80
2024-05-09T00:57:51.651Z,51.80
2024-05-09T00:58:05.835Z,51.80
2024-05-09T00:58:23.371Z,51.80
2024-05-09T00:58:39.087Z,51.70
2024-05-09T00:58:52.600Z,51.70
2024-05-09T00:59:05.486Z,51.80
2024-05-09T00:59:18.756Z,51.80
2024-05-09T00:59:33.927Z,51.80
2024-05-09T00:59:47.693Z,51.80
2024-05-09T01:00:00.994Z,51.80
2024-05-09T01:00:22.620Z,51.80
2024-05-09T01:00:47.216Z,51.80
2024-05-09T01:01:02.094Z,51.80
2024-05-09T01:01:17.384Z,51.80
2024-05-09T01:01:33.021Z,51.80
2024-05-09T01:01:47.029Z,51.80
2024-05-09T01:02:01.143Z,51.80
2024-05-09T01:02:14.868Z,51.80
2024-05-09T01:02:28.845Z,51.80
2024-05-09T01:02:44.505Z,51.80
2024-05-09T01:02:57.600Z,51.80
2024-05-09T01:03:12.858Z,51.80
2024-05-09T01:03:28.080Z,51.80
2024-05-09T01:03:41.352Z,51.80
2024-05-09T01:03:54.514Z,51.80
2024-05-09T01:04:07.690Z,51.80
2024-05-09T01:04:20.741Z,51.80
2024-05-09T01:04:36.320Z,51.80
2024-05-09T01:04:50.508Z,51.80
2024-05-09T01:05:03.836Z,51.80
2024-05-09T01:05:17.039Z,51.80
2024-05-09T01:05:30.324Z,51.80
2024-05-09T01:05:44.042Z,51.80
2024-05-09T01:05:57.225Z,51.80
2024-05-09T01:06:10.162Z,51.80
2024-05-09T01:06:25.875Z,51.80
2024-05-09T01:06:39.078Z,51.80
2024-05-09T01:06:52.064Z,51.80
2024-05-09T01:07:05.286Z,51.80
2024-05-09T01:07:18.122Z,51.80
2024-05-09T01:07:30.984Z,51.90
2024-05-09T01:07:44.120Z,51.80
2024-05-09T01:07:57.046Z,51.80
2024-05-09T01:08:10.954Z,51.90
2024-05-09T01:08:26.854Z,51.90
2024-05-09T01:08:39.809Z,51.90
2024-05-09T01:08:52.753Z,51.90
2024-05-09T01:09:05.678Z,51.90
2024-05-09T01:09:18.525Z,51.90
2024-05-09T01:09:31.337Z,51.90
2024-05-09T01:09:44.174Z,51.90
2024-05-09T01:09:59.671Z,51.90
2024-05-09T01:10:17.403Z,51.90
2024-05-09T01:10:36.930Z,52.00
2024-05-09T01:10:50.111Z,51.90
2024-05-09T01:11:03.080Z,51.90
2024-05-09T01:11:17.879Z,51.90
2024-05-09T01:11:36.763Z,52.00
2024-05-09T01:11:52.342Z,52.00
2024-05-09T01:12:06.003Z,52.00
2024-05-09T01:12:19.079Z,52.00
2024-05-09T01:12:32.147Z,52.00
2024-05-09T01:12:45.068Z,52.00
2024-05-09T01:12:57.891Z,51.90
2024-05-09T01:13:10.692Z,51.90
2024-05-09T01:13:23.494Z,51.90
2024-05-09T01:13:36.286Z,51.90
2024-05-09T01:13:51.869Z,51.90
2024-05-09T01:14:04.926Z,51.90
2024-05-09T01:14:17.721Z,51.90
2024-05-09T01:14:30.674Z,51.90
2024-05-09T01:14:43.514Z,51.90
2024-05-09T01:14:56.276Z,51.90
2024-05-09T01:15:09.213Z,51.90
2024-05-09T01:15:22.129Z,51.90
2024-05-09T01:15:38.178Z,51.90
2024-05-09T01:15:53.112Z,52.00
2024-05-09T01:16:06.769Z,51.90
2024-05-09T01:16:19.585Z,51.90
2024-05-09T01:16:35.312Z,51.90
2024-05-09T01:16:48.207Z,51.90
2024-05-09T01:17:01.060Z,51.90
2024-05-09T01:17:14.300Z,51.90
2024-05-09T01:17:27.913Z,51.90
2024-05-09T01:17:44.199Z,51.90
2024-05-09T01:17:57.669Z,51.90
2024-05-09T01:18:12.637Z,51.90
2024-05-09T01:18:27.361Z,51.90
2024-05-09T01:18:40.661Z,51.80
2024-05-09T01:18:53.812Z,51.90
2024-05-09T01:19:15.783Z,51.80
2024-05-09T01:19:31.023Z,51.80
2024-05-09T01:19:47.904Z,51.90
2024-05-09T01:20:00.839Z,51.90
2024-05-09T01:20:20.045Z,51.80
2024-05-09T01:20:43.239Z,51.80
2024-05-09T01:20:58.034Z,51.80
2024-05-09T01:21:10.976Z,51.80
2024-05-09T01:21:26.568Z,51.80
2024-05-09T01:21:41.767Z,51.90
2024-05-09T01:21:54.600Z,51.80
2024-05-09T01:22:08.517Z,51.90
2024-05-09T01:22:22.858Z,51.90
2024-05-09T01:22:37.418Z,51.90
2024-05-09T01:22:51.462Z,51.90
2024-05-09T01:23:11.882Z,51.90
2024-05-09T01:23:25.242Z,51.90
2024-05-09T01:23:38.282Z,51.90
2024-05-09T01:23:51.217Z,51.90
2024-05-09T01:24:04.145Z,51.80
2024-05-09T01:24:17.074Z,51.90
2024-05-09T01:24:29.890Z,51.80
2024-05-09T01:24:45.342Z,51.80
2024-05-09T01:24:58.108Z,51.90
2024-05-09T01:25:11.142Z,51.90
2024-05-09T01:25:23.931Z,51.80
2024-05-09T01:25:36.864Z,51.90
2024-05-09T01:25:49.972Z,51.90
2024-05-09T01:26:03.158Z,51.80
2024-05-09T01:26:18.855Z,51.80
2024-05-09T01:26:31.803Z,51.90
2024-05-09T01:26:44.719Z,51.90
2024-05-09T01:26:57.546Z,51.90
2024-05-09T01:27:10.362Z,51.90
2024-05-09T01:27:23.617Z,51.90
2024-05-09T01:27:36.947Z,51.90
2024-05-09T01:27:49.761Z,51.90
2024-05-09T01:28:02.656Z,51.90
2024-05-09T01:28:16.483Z,51.90
2024-05-09T01:28:32.039Z,51.90
2024-05-09T01:28:44.922Z,51.90
2024-05-09T01:28:57.837Z,51.90
2024-05-09T01:29:10.748Z,51.90
2024-05-09T01:29:23.649Z,51.90
2024-05-09T01:29:36.569Z,51.90
2024-05-09T01:29:49.392Z,51.90
2024-05-09T01:30:03.025Z,51.90
2024-05-09T01:30:24.565Z,51.90
2024-05-09T01:30:44.507Z,51.90
2024-05-09T01:30:57.325Z,51.90
2024-05-09T01:31:15.833Z,51.90
2024-05-09T01:31:28.720Z,51.90
2024-05-09T01:31:41.659Z,51.90
2024-05-09T01:31:54.609Z,51.90
2024-05-09T01:32:10.562Z,51.90
2024-05-09T01:32:23.649Z,51.90
2024-05-09T01:32:36.776Z,51.90
2024-05-09T01:32:49.957Z,51.90
2024-05-09T01:33:03.383Z,51.90
2024-05-09T01:33:16.723Z,51.90
2024-05-09T01:33:29.911Z,51.90
2024-05-09T01:33:46.515Z,51.90
2024-05-09T01:33:59.612Z,51.90
2024-05-09T01:34:12.533Z,51.90
2024-05-09T01:34:25.543Z,51.90
2024-05-09T01:34:38.341Z,51.90
2024-05-09T01:34:51.237Z,51.90
2024-05-09T01:35:04.409Z,51.90
2024-05-09T01:35:17.239Z,51.90
2024-05-09T01:35:30.428Z,51.90
2024-05-09T01:35:43.595Z,51.90
2024-05-09T01:35:59.211Z,51.90
2024-05-09T01:36:12.079Z,52.00
2024-05-09T01:36:24.832Z,52.00
2024-05-09T01:36:37.645Z,52.00
2024-05-09T01:36:50.439Z,52.00
2024-05-09T01:37:03.229Z,52.00
2024-05-09T01:37:16.114Z,52.00
2024-05-09T01:37:28.935Z,52.00
2024-05-09T01:37:41.805Z,52.00
2024-05-09T01:37:54.690Z,52.00
2024-05-09T01:38:14.117Z,52.00
2024-05-09T01:38:27.262Z,52.00
2024-05-09T01:38:40.189Z,52.10
2024-05-09T01:38:53.142Z,52.10
2024-05-09T01:39:06.001Z,52.10
2024-05-09T01:39:18.827Z,52.10
2024-05-09T01:39:31.660Z,52.10
2024-05-09T01:39:47.145Z,52.10
2024-05-09T01:39:59.958Z,52.10
2024-05-09T01:40:18.423Z,52.10
2024-05-09T01:40:38.728Z,52.00
2024-05-09T01:40:53.325Z,52.00
2024-05-09T01:41:06.584Z,52.00
2024-05-09T01:41:19.613Z,52.00
2024-05-09T01:41:32.766Z,52.00
2024-05-09T01:41:48.322Z,52.00
2024-05-09T01:42:01.089Z,52.00
2024-05-09T01:42:13.852Z,52.00
2024-05-09T01:42:26.670Z,52.00
2024-05-09T01:42:39.468Z,52.00
2024-05-09T01:42:52.254Z,52.00
2024-05-09T01:43:05.424Z,52.00
2024-05-09T01:43:18.239Z,52.00
2024-05-09T01:43:33.697Z,52.00
2024-05-09T01:43:46.539Z,52.00
2024-05-09T01:43:59.510Z,52.00
2024-05-09T01:44:12.399Z,52.00
2024-05-09T01:44:25.462Z,52.00
2024-05-09T01:44:38.431Z,52.00
2024-05-09T01:44:51.308Z,52.00
2024-05-09T01:45:04.419Z,52.00
2024-05-09T01:45:18.588Z,52.00
2024-05-09T01:45:31.449Z,52.00
2024-05-09T01:45:46.942Z,52.00
2024-05-09T01:45:59.784Z,52.00
2024-05-09T01:46:14.745Z,52.00
2024-05-09T01:46:27.579Z,52.00
2024-05-09T01:46:40.359Z,52.00
2024-05-09T01:46:53.434Z,52.00
2024-05-09T01:47:06.445Z,52.00
2024-05-09T01:47:19.550Z,52.00
2024-05-09T01:47:35.257Z,52.00
2024-05-09T01:47:48.480Z,52.00
2024-05-09T01:48:02.232Z,51.90
2024-05-09T01:48:15.700Z,52.00
2024-05-09T01:48:28.739Z,52.00
2024-05-09T01:48:41.697Z,52.00
2024-05-09T01:48:54.644Z,52.00
2024-05-09T01:49:08.238Z,52.00
2024-05-09T01:49:21.418Z,52.00
2024-05-09T01:49:40.377Z,52.00
2024-05-09T01:49:53.251Z,52.00
2024-05-09T01:50:09.123Z,52.00
2024-05-09T01:50:35.738Z,52.00
2024-05-09T01:50:52.078Z,52.00
2024-05-09T01:51:05.294Z,52.00
2024-05-09T01:51:18.137Z,52.00
2024-05-09T01:51:33.723Z,52.00
2024-05-09T01:51:46.606Z,52.00
2024-05-09T01:51:59.463Z,52.00
2024-05-09T01:52:12.342Z,52.00
2024-05-09T01:52:25.155Z,52.00
2024-05-09T01:52:39.038Z,52.00
2024-05-09T01:52:51.992Z,52.00
2024-05-09T01:53:05.110Z,52.00
2024-05-09T01:53:23.347Z,52.00
2024-05-09T01:53:36.443Z,52.00
2024-05-09T01:53:49.673Z,52.00
2024-05-09T01:54:03.350Z,52.00
2024-05-09T01:54:16.217Z,52.00
2024-05-09T01:54:29.044Z,52.00
2024-05-09T01:54:41.858Z,52.00
2024-05-09T01:54:54.765Z,52.00
2024-05-09T01:55:08.211Z,52.00
2024-05-09T01:55:23.774Z,52.00
2024-05-09T01:55:36.580Z,52.00
2024-05-09T01:55:49.530Z,52.00
2024-05-09T01:56:02.692Z,52.00
2024-05-09T01:56:15.594Z,52.00
2024-05-09T01:56:28.532Z,52.00
2024-05-09T01:56:41.496Z,52.00
2024-05-09T01:56:54.410Z,52.00
2024-05-09T01:57:09.905Z,52.00
2024-05-09T01:57:22.788Z,51.90
2024-05-09T01:57:35.624Z,52.00
2024-05-09T01:57:48.426Z,52.00
2024-05-09T01:58:01.339Z,52.00
2024-05-09T01:58:14.329Z,52.00
2024-05-09T01:58:27.216Z,52.00
2024-05-09T01:58:40.043Z,52.00
2024-05-09T01:58:55.581Z,52.00
2024-05-09T01:59:10.599Z,52.00
2024-05-09T01:59:23.598Z,52.00
2024-05-09T01:59:36.488Z,52.00
2024-05-09T01:59:49.342Z,52.00
2024-05-09T02:00:02.143Z,52.00
2024-05-09T02:00:22.166Z,52.00
2024-05-09T02:00:43.497Z,52.00
2024-05-09T02:00:59.582Z,52.00
2024-05-09T02:01:12.509Z,52.00
2024-05-09T02:01:25.456Z,52.00
2024-05-09T02:01:56.146Z,52.00
2024-05-09T02:02:10.746Z,52.00
2024-05-09T02:02:23.805Z,52.00
2024-05-09T02:02:36.677Z,52.00
2024-05-09T02:02:52.385Z,52.00
2024-05-09T02:03:06.108Z,52.00
2024-05-09T02:03:19.340Z,52.00
2024-05-09T02:03:32.451Z,52.00
2024-05-09T02:03:46.840Z,52.00
2024-05-09T02:04:00.024Z,52.00
2024-05-09T02:04:13.156Z,52.10
2024-05-09T02:04:28.984Z,52.00
2024-05-09T02:04:41.999Z,52.10
2024-05-09T02:04:54.952Z,52.10
2024-05-09T02:05:08.389Z,52.10
2024-05-09T02:05:21.503Z,52.10
2024-05-09T02:05:34.592Z,52.10
2024-05-09T02:05:50.203Z,52.10
2024-05-09T02:06:03.189Z,52.10
2024-05-09T02:06:16.093Z,52.10
2024-05-09T02:06:31.617Z,52.10
2024-05-09T02:06:44.483Z,52.10
2024-05-09T02:06:57.338Z,52.10
2024-05-09T02:07:10.126Z,52.10
2024-05-09T02:07:22.963Z,52.10
2024-05-09T02:07:36.360Z,52.10
2024-05-09T02:07:49.289Z,52.10
2024-05-09T02:08:02.297Z,52.10
2024-05-09T02:08:16.334Z,52.10
2024-05-09T02:08:34.930Z,52.10
2024-05-09T02:08:47.928Z,52.10
2024-05-09T02:09:00.705Z,52.10
2024-05-09T02:09:13.512Z,52.10
2024-05-09T02:09:26.385Z,52.10
2024-05-09T02:09:39.260Z,52.00
2024-05-09T02:09:53.067Z,52.10
2024-05-09T02:10:13.668Z,52.10
2024-05-09T02:10:32.675Z,52.10
2024-05-09T02:10:50.519Z,52.10
2024-05-09T02:11:04.086Z,52.10
2024-05-09T02:11:17.154Z,52.10
2024-05-09T02:11:30.103Z,52.00
2024-05-09T02:11:44.872Z,52.10
2024-05-09T02:11:57.904Z,52.10
2024-05-09T02:12:11.100Z,52.00
2024-05-09T02:12:24.201Z,52.00
2024-05-09T02:12:37.127Z,52.00
2024-05-09T02:12:49.969Z,52.10
2024-05-09T02:13:02.775Z,52.10
2024-05-09T02:13:18.729Z,52.10
2024-05-09T02:13:31.535Z,52.10
2024-05-09T02:13:44.385Z,52.10
2024-05-09T02:13:57.284Z,52.10
2024-05-09T02:14:10.205Z,52.10
2024-05-09T02:14:23.154Z,52.10
2024-05-09T02:14:36.089Z,52.10
2024-05-09T02:14:51.665Z,52.10
2024-05-09T02:15:04.887Z,52.10
2024-05-09T02:15:17.660Z,52.10
2024-05-09T02:15:30.555Z,52.10
2024-05-09T02:15:43.508Z,52.10
2024-05-09T02:15:56.872Z,52.10
2024-05-09T02:16:12.525Z,52.10
2024-05-09T02:16:28.017Z,52.10
2024-05-09T02:16:40.892Z,52.10
2024-05-09T02:16:53.909Z,52.10
2024-05-09T02:17:06.919Z,52.10
2024-05-09T02:17:19.983Z,52.20
2024-05-09T02:17:32.951Z,52.20
2024-05-09T02:17:46.119Z,52.30
2024-05-09T02:17:59.153Z,52.30
2024-05-09T02:18:13.282Z,52.30
2024-05-09T02:18:26.768Z,52.30
2024-05-09T02:18:42.447Z,52.30
2024-05-09T02:18:55.371Z,52.30
2024-05-09T02:19:08.336Z,52.30
2024-05-09T02:19:21.467Z,52.30
2024-05-09T02:19:34.495Z,52.30
2024-05-09T02:19:47.440Z,52.30
2024-05-09T02:20:00.378Z,52.30
2024-05-09T02:20:18.972Z,52.30
2024-05-09T02:20:44.102Z,52.30
2024-05-09T02:20:57.211Z,52.30
2024-05-09T02:21:10.166Z,52.30
2024-05-09T02:21:22.999Z,52.30
2024-05-09T02:21:36.806Z,52.30
2024-05-09T02:21:49.657Z,52.30
2024-05-09T02:22:02.506Z,52.30
2024-05-09T02:22:17.996Z,52.30
2024-05-09T02:22:30.797Z,52.30
2024-05-09T02:22:43.730Z,52.30
2024-05-09T02:22:57.645Z,52.30
2024-05-09T02:23:10.810Z,52.30
2024-05-09T02:23:23.707Z,52.30
2024-05-09T02:23:39.268Z,52.30
2024-05-09T02:23:52.108Z,52.30
2024-05-09T02:24:05.206Z,52.30
2024-05-09T02:24:20.707Z,52.30
2024-05-09T02:24:33.465Z,52.30
2024-05-09T02:24:46.250Z,52.20
2024-05-09T02:24:59.086Z,52.20
2024-05-09T02:25:11.921Z,52.30
2024-05-09T02:25:27.161Z,52.30
2024-05-09T02:25:40.296Z,52.30
2024-05-09T02:25:53.350Z,52.30
2024-05-09T02:26:06.874Z,52.30
2024-05-09T02:26:22.544Z,52.30
2024-05-09T02:26:35.465Z,52.30
2024-05-09T02:26:48.330Z,52.20
2024-05-09T02:27:01.235Z,52.30
2024-05-09T02:27:14.033Z,52.20
2024-05-09T02:27:26.858Z,52.30
2024-05-09T02:27:39.914Z,52.20
2024-05-09T02:27:52.674Z,52.20
2024-05-09T02:28:08.740Z,52.30
2024-05-09T02:28:21.751Z,52.30
2024-05-09T02:28:34.593Z,52.30
2024-05-09T02:28:47.452Z,52.30
2024-05-09T02:29:00.470Z,52.30
2024-05-09T02:29:13.392Z,52.30
2024-05-09T02:29:26.309Z,52.30
2024-05-09T02:29:39.223Z,52.30
2024-05-09T02:29:52.098Z,52.20
2024-05-09T02:30:12.247Z,52.20
2024-05-09T02:30:39.734Z,52.30
2024-05-09T02:30:54.542Z,52.30
2024-05-09T02:31:07.385Z,52.30
2024-05-09T02:31:20.275Z,52.30
2024-05-09T02:31:33.075Z,52.30
2024-05-09T02:31:46.028Z,52.30
2024-05-09T02:31:59.012Z,52.30
2024-05-09T02:32:12.014Z,52.30
2024-05-09T02:32:25.036Z,52.30
2024-05-09T02:32:38.238Z,52.30
2024-05-09T02:32:51.447Z,52.30
2024-05-09T02:33:07.779Z,52.30
2024-05-09T02:33:21.424Z,52.30
2024-05-09T02:33:34.615Z,52.30
2024-05-09T02:33:47.919Z,52.30
2024-05-09T02:34:01.265Z,52.30
2024-05-09T02:34:14.411Z,52.30
2024-05-09T02:34:27.301Z,52.30
2024-05-09T02:34:40.211Z,52.20
2024-05-09T02:34:53.048Z,52.20
2024-05-09T02:35:06.559Z,52.20
2024-05-09T02:35:22.038Z,52.20
2024-05-09T02:35:35.063Z,52.20
2024-05-09T02:35:48.025Z,52.20
2024-05-09T02:36:00.846Z,52.20
2024-05-09T02:36:13.740Z,52.20
2024-05-09T02:36:26.659Z,52.20
2024-05-09T02:36:39.517Z,52.20
2024-05-09T02:36:56.094Z,52.20
2024-05-09T02:37:08.875Z,52.20
2024-05-09T02:37:21.722Z,52.20
2024-05-09T02:37:34.599Z,52.20
2024-05-09T02:37:47.540Z,52.20
2024-05-09T02:38:00.615Z,52.20
2024-05-09T02:38:16.340Z,52.20
2024-05-09T02:38:29.243Z,52.20
2024-05-09T02:38:44.804Z,52.20
2024-05-09T02:38:57.632Z,52.20
2024-05-09T02:39:10.541Z,52.20
2024-05-09T02:39:23.435Z,52.20
2024-05-09T02:39:36.276Z,52.20
2024-05-09T02:39:49.068Z,52.20
2024-05-09T02:40:01.917Z,52.20
2024-05-09T02:40:18.234Z,52.20
2024-05-09T02:40:37.986Z,52.20
2024-05-09T02:40:52.617Z,52.20
2024-05-09T02:41:05.887Z,52.20
2024-05-09T02:41:18.755Z,52.20
2024-05-09T02:41:31.629Z,52.20
2024-05-09T02:41:44.477Z,52.20
2024-05-09T02:41:59.963Z,52.30
2024-05-09T02:42:12.772Z,52.30
2024-05-09T02:42:26.069Z,52.20
2024-05-09T02:42:38.870Z,52.30
2024-05-09T02:42:51.700Z,52.30
2024-05-09T02:43:04.712Z,52.20
2024-05-09T02:43:17.819Z,52.20
2024-05-09T02:43:30.741Z,52.20
2024-05-09T02:43:43.622Z,52.20
2024-05-09T02:43:56.493Z,52.20
2024-05-09T02:44:09.424Z,52.20
2024-05-09T02:44:22.660Z,52.20
2024-05-09T02:44:35.656Z,52.20
2024-05-09T02:44:48.426Z,52.20
2024-05-09T02:45:01.260Z,52.20
2024-05-09T02:45:14.077Z,52.20
2024-05-09T02:45:26.966Z,52.20
2024-05-09T02:45:42.493Z,52.20
2024-05-09T02:45:55.332Z,52.20
2024-05-09T02:46:08.193Z,52.20
2024-05-09T02:46:21.028Z,52.20
2024-05-09T02:46:35.454Z,52.20
2024-05-09T02:46:48.362Z,52.20
2024-05-09T02:47:01.254Z,52.20
2024-05-09T02:47:14.206Z,52.20
2024-05-09T02:47:27.146Z,52.20
2024-05-09T02:47:40.279Z,52.20
2024-05-09T02:47:53.403Z,52.30
2024-05-09T02:48:07.790Z,52.30
2024-05-09T02:48:20.980Z,52.30
2024-05-09T02:48:34.009Z,52.20
2024-05-09T02:48:47.001Z,52.20
2024-05-09T02:48:59.934Z,52.20
2024-05-09T02:49:12.818Z,52.20
2024-05-09T02:49:25.873Z,52.20
2024-05-09T02:49:41.447Z,52.20
2024-05-09T02:49:55.203Z,52.20
2024-05-09T02:50:10.689Z,52.20
2024-05-09T02:50:30.590Z,52.20
2024-05-09T02:50:52.217Z,52.20
2024-05-09T02:51:05.810Z,52.20
2024-05-09T02:51:18.725Z,52.20
2024-05-09T02:51:31.518Z,52.20
2024-05-09T02:51:44.284Z,52.20
2024-05-09T02:51:57.111Z,52.20
2024-05-09T02:52:10.006Z,52.20
2024-05-09T02:52:22.840Z,52.20
2024-05-09T02:52:38.258Z,52.20
2024-05-09T02:52:51.241Z,52.20
2024-05-09T02:53:04.418Z,52.20
2024-05-09T02:53:17.678Z,52.20
2024-05-09T02:53:30.796Z,52.20
2024-05-09T02:53:46.586Z,52.20
2024-05-09T02:53:59.431Z,52.20
2024-05-09T02:54:12.746Z,52.20
2024-05-09T02:54:25.604Z,52.20
2024-05-09T02:54:38.489Z,52.20
2024-05-09T02:54:51.378Z,52.20
2024-05-09T02:55:04.507Z,52.20
2024-05-09T02:55:17.327Z,52.20
2024-05-09T02:55:30.123Z,52.10
2024-05-09T02:55:43.487Z,52.10
2024-05-09T02:55:56.525Z,52.10
2024-05-09T02:56:12.195Z,52.10
2024-05-09T02:56:25.123Z,52.10
2024-05-09T02:56:37.998Z,52.10
2024-05-09T02:56:50.894Z,52.10
2024-05-09T02:57:03.808Z,52.10
2024-05-09T02:57:16.621Z,52.10
2024-05-09T02:57:29.465Z,52.10
2024-05-09T02:57:42.347Z,52.10
2024-05-09T02:57:55.114Z,52.10
2024-05-09T02:58:08.596Z,52.10
2024-05-09T02:58:21.484Z,52.10
2024-05-09T02:58:34.264Z,52.20
2024-05-09T02:58:47.239Z,52.20
2024-05-09T02:59:00.103Z,52.20
2024-05-09T02:59:16.140Z,52.20